Warwick, Canada
Current Conditions -  °F | °C
As of 12:00 AM on Friday 28 Nov 2014 (Local Time) from CYSC Reporting Station
Overcast Overcast  
Wind Chill: 21°   Ceiling: 2700
Heat Index: 21°   Visibility: 9mi
Dew Point: 21°   Wind: 2mph
Humidity: 100%   Direction: 280°W
Pressure: 30.01"   Gusts: NA
Location:  45.95°N, 71.98°W
Report Text: CYSC 280500Z AUTO 28002KT 9SM OVC027 M06/M06 A3001 RMK SLP176
Loading
Personal Weather Stations






























Interactive Weather Map New forecast layout! Learn more

10-Day Weather Forecast

Advertisements
Track Severe Weather on mobile